< < Back
Terminal Aerodrome Forecast


Current Version              Previous Versions:   1  2  3  4  5  6  7  8  9  

Terminal Aerodrome Forecast

620
FTUS44 KOHX 262300 AAA
TAFCSV
TAF AMD
KCSV 262340Z 2700/2724 24005KT P6SM BKN050
     FM270300 27004KT P6SM -RASN OVC025
     FM270600 29007KT 4SM -SN OVC010
     FM271200 31008KT P6SM OVC025
     FM271700 31010KT P6SM BKN025
     FM272000 31012KT P6SM SCT025=

Latest METAR

852
SAUS70 KWBC 270600 RRG
MTRCSV
METAR KCSV 270553Z AUTO 27018G29KT 8SM BKN011 BKN019 OVC028 03/01 A2999
RMK AO2 PK WND 26029/0545 UPB0457E07RAB32E42 SLP160 P0000
60010 T00330006 10061 20028 400830000 55003


USA.gov is the U.S. government's official web portal to all federal, state and local government web resources and services.